• Join FlightAware (Why Join?)
  • Login
  • US Flag 
07:19AM EDT


 

Airport Tracker/Info


-or-


 

Live Flight TrackerFlight Track Log ✈ N946RM ✈ 12-Mar-2014 ✈ KRDU - KBHM

Flight Track Log - Related Links

Times and Time Zones

All times are in EDT time to prevent confusion due to time zone crossing. See the N946RM flight status page for this flight to view local times or setup timezone preferences in your user account.

Time Position Orientation Groundspeed Altitude Reporting Facility
EDT Latitude Longitude Course Direction KTS MPH feet Rate Location/Type
07:40PM 35.8606 -78.8033 204° Southwest 145 167 1,500  Level Washington Center
07:40PM 35.8519 -78.8081 213° Southwest 165 190 2,200 3,600 Climbing Washington Center
07:41PM 35.8050 -78.8472 214° Southwest 213 245 5,700 2,340 Climbing Washington Center
07:42PM 35.7764 -78.8997 236° Southwest 199 229 7,000 960 Climbing Washington Center
07:42PM 35.7803 -78.9153 287° West 201 231 7,000 2,040 Level Washington Center
07:43PM 35.7764 -78.9817 266° West 201 231 9,600 2,640 Climbing Washington Center
07:44PM 35.7806 -79.0561 274° West 201 231 12,200 2,880 Climbing Washington Center
07:45PM 35.7989 -79.1364 286° West 213 245 15,400 2,520 Climbing Washington Center
07:48PM 35.8325 -79.3361 282° West 241 277 21,100 2,160 Climbing Atlanta Center
07:49PM 35.8256 -79.4236 264° West 251 289 22,900 900 Climbing Atlanta Center
07:50PM 35.8186 -79.5214 265° West 265 305 23,000 300 Climbing Atlanta Center
07:51PM 35.8053 -79.6142 260° West 278 320 23,600 480 Climbing Atlanta Center
07:52PM 35.7894 -79.6919 256° West 273 314 24,000 600 Climbing Atlanta Center
07:53PM 35.7700 -79.7953 257° West 279 321 24,900 480 Climbing Atlanta Center
07:54PM 35.7544 -79.8856 258° West 279 321 25,000 60 Climbing Atlanta Center
07:55PM 35.7369 -79.9864 258° West 285 328 25,100 840 Climbing Atlanta Center
07:56PM 35.7233 -80.0792 260° West 285 328 26,700 1,380 Climbing Atlanta Center
07:57PM 35.7072 -80.1669 257° West 278 320 27,900 1,080 Climbing Atlanta Center
07:58PM 35.6931 -80.2467 258° West 273 314 28,900 900 Climbing Atlanta Center
07:59PM 35.6772 -80.3394 258° West 273 314 29,800 960 Climbing Atlanta Center
08:01PM 35.6319 -80.5103 252° West 268 308 31,900 720 Climbing Atlanta Center
08:02PM 35.6072 -80.5931 250° West 268 308 32,000  Climbing Atlanta Center
08:03PM 35.5828 -80.6858 252° West 273 314 32,000 480 Level Atlanta Center
08:04PM 35.5581 -80.7764 251° West 278 320 33,000 900 Climbing Atlanta Center
08:05PM 35.5353 -80.8589 251° West 272 313 33,800 900 Climbing Atlanta Center
08:06PM 35.5122 -80.9389 251° West 267 307 34,800 1,200 Climbing Atlanta Center
08:07PM 35.4892 -81.0164 250° West 261 300 36,200 1,260 Climbing Atlanta Center
08:08PM 35.4636 -81.0861 246° West 243 280 37,400 900 Climbing Atlanta Center
08:09PM 35.4278 -81.1536 237° Southwest 237 273 38,100 660 Climbing Atlanta Center
08:10PM 35.3897 -81.2186 234° Southwest 237 273 38,800 660 Climbing Atlanta Center
08:11PM 35.3453 -81.2839 230° Southwest 247 284 39,500 600 Climbing Atlanta Center
08:12PM 35.3050 -81.3514 234° Southwest 252 290 40,000 240 Climbing Atlanta Center
08:13PM 35.2586 -81.4214 231° Southwest 257 296 40,000  Level Atlanta Center
08:14PM 35.2100 -81.4942 231° Southwest 263 303 40,000  Level Atlanta Center
08:15PM 35.1803 -81.5817 247° West 278 320 40,000  Level Atlanta Center
08:16PM 35.1719 -81.6783 264° West 278 320 40,000  Level Atlanta Center
08:17PM 35.1697 -81.7800 268° West 289 333 40,000  Level Atlanta Center
08:18PM 35.1633 -81.8894 266° West 295 339 40,000  Level Atlanta Center
08:19PM 35.1608 -81.9886 268° West 295 339 40,000  Level Atlanta Center
08:20PM 35.1561 -82.0853 267° West 295 339 40,000  Level Atlanta Center
08:21PM 35.1492 -82.1844 265° West 295 339 40,000  Level Atlanta Center
08:22PM 35.1444 -82.2758 266° West 285 328 40,000  Level Atlanta Center
08:23PM 35.1375 -82.3753 265° West 285 328 40,000  Level Atlanta Center
08:24PM 35.1344 -82.4692 268° West 290 334 40,000  Level Atlanta Center
08:25PM 35.1294 -82.5708 267° West 295 339 40,000  Level Atlanta Center
08:26PM 35.1244 -82.6700 267° West 290 334 40,000  Level Atlanta Center
08:27PM 35.1192 -82.7642 266° West 297 342 40,000  Level Atlanta Center
08:28PM 35.1117 -82.8658 265° West 290 334 40,000  Level Atlanta Center
08:29PM 35.1064 -82.9597 266° West 290 334 40,000  Level Atlanta Center
08:30PM 35.1008 -83.0564 266° West 290 334 40,000  Level Atlanta Center
08:31PM 35.0953 -83.1528 266° West 290 334 40,000  Level Atlanta Center
08:32PM 35.0897 -83.2544 266° West 295 339 40,000  Level Atlanta Center
08:33PM 35.0842 -83.3508 266° West 290 334 40,000  Level Atlanta Center
08:34PM 35.0783 -83.4475 266° West 290 334 40,000  Level Atlanta Center
08:35PM 35.0725 -83.5364 265° West 290 334 40,000  Level Atlanta Center
08:36PM 35.0667 -83.6303 266° West 290 334 40,000  Level Atlanta Center
08:37PM 35.0586 -83.7292 264° West 295 339 40,000  Level Atlanta Center
08:38PM 35.0525 -83.8308 266° West 295 339 40,000  Level Atlanta Center
08:39PM 35.0464 -83.9247 265° West 289 333 40,000  Level Atlanta Center
08:40PM 35.0403 -84.0236 266° West 294 338 40,000  Level Atlanta Center
08:41PM 35.0339 -84.1200 265° West 294 338 40,000  Level Atlanta Center
08:42PM 35.0256 -84.2214 264° West 294 338 40,000  Level Atlanta Center
08:43PM 35.0189 -84.3253 266° West 294 338 40,000 -540 Level Atlanta Center
08:44PM 35.0144 -84.4242 267° West 294 338 39,000 -1,020 Descending Atlanta Center
08:45PM 34.9892 -84.5153 251° West 288 331 38,000 -1,020 Descending Atlanta Center
08:46PM 34.9492 -84.5939 238° Southwest 282 325 37,000 -1,020 Descending Atlanta Center
08:47PM 34.9008 -84.6744 234° Southwest 287 330 36,000 -1,020 Descending Atlanta Center
08:48PM 34.8544 -84.7628 237° Southwest 301 346 35,000 -540 Descending Atlanta Center
08:49PM 34.8100 -84.8483 238° Southwest 306 352 35,000  Level Atlanta Center
08:50PM 34.7656 -84.9314 237° Southwest 306 352 35,000  Level Atlanta Center
08:51PM 34.7211 -85.0117 236° Southwest 296 341 35,000  Level Atlanta Center
08:52PM 34.6747 -85.0944 236° Southwest 296 341 35,000  Level Atlanta Center
08:53PM 34.6322 -85.1772 238° Southwest 295 339 35,000 -300 Level Atlanta Center
08:54PM 34.5856 -85.2600 236° Southwest 302 348 34,400 -900 Descending Atlanta Center
08:55PM 34.5408 -85.3425 237° Southwest 302 348 33,300 -1,080 Descending Atlanta Center
08:56PM 34.4961 -85.4250 237° Southwest 297 342 32,300 -1,020 Descending Atlanta Center
08:57PM 34.4492 -85.5125 237° Southwest 302 348 31,300 -1,620 Descending Atlanta Center
08:58PM 34.4022 -85.5972 236° Southwest 302 348 29,100 -2,280 Descending Atlanta Center
08:59PM 34.3636 -85.6694 237° Southwest 297 342 26,800 -2,400 Descending Atlanta Center
09:00PM 34.3208 -85.7492 237° Southwest 292 336 24,400 -2,580 Descending Atlanta Center
09:00PM 34.3081 -85.7614 218° Southwest 279 321 24,100 -1,740 Descending Atlanta Center
09:01PM 34.2781 -85.8211 239° Southwest 266 306 22,900 -1,320 Descending Atlanta Center
09:01PM 34.2781 -85.8186 90° East 277 319 22,900 -1,500 Level Atlanta Center
09:02PM 34.2353 -85.8931 235° Southwest 272 313 21,200 -1,740 Descending Atlanta Center
09:03PM 34.1922 -85.9775 238° Southwest 279 321 19,700 -1,440 Descending Atlanta Center
09:03PM 34.1925 -85.9700 87° East 277 319 19,800 -1,200 Climbing Atlanta Center
09:04PM 34.1472 -86.0544 237° Southwest 289 333 18,400 -1,440 Descending Atlanta Center
09:05PM 34.1019 -86.1361 236° Southwest 287 330 17,100 -1,320 Descending Atlanta Center
09:05PM 34.1042 -86.1311 62° Northeast 289 333 17,100 -1,680 Level Atlanta Center
09:06PM 34.0589 -86.2153 237° Southwest 295 339 15,300 -1,980 Descending Atlanta Center
09:07PM 34.0114 -86.2992 236° Southwest 296 341 13,400 -1,920 Descending Atlanta Center
09:07PM 34.0136 -86.2942 62° Northeast 300 345 13,400 -1,980 Level Atlanta Center
09:08PM 33.9639 -86.3831 236° Southwest 294 338 11,400 -1,920 Descending Atlanta Center
09:08PM 33.9661 -86.3781 62° Northeast 300 345 11,500 -1,140 Climbing Atlanta Center
09:09PM 33.9083 -86.4492 226° Southwest 299 344 10,300 -1,140 Descending Atlanta Center
09:09PM 33.9125 -86.4494 357° North 300 345 10,400 -2,280 Climbing Atlanta Center
09:10PM 33.8242 -86.4894 201° Southwest 297 342 8,000 -2,280 Descending Atlanta Center
09:11PM 33.7503 -86.5247 202° Southwest 289 333 6,000 -1,500 Descending Atlanta Center
09:12PM 33.6786 -86.5600 202° Southwest 271 312 5,000 -1,020 Descending Atlanta Center
09:13PM 33.6175 -86.5981 207° Southwest 247 284 4,000 -1,020 Descending Atlanta Center
09:14PM 33.5583 -86.6264 202° Southwest 214 246 3,000 -600 Descending Atlanta Center
09:15PM 33.5242 -86.6678 225° Southwest 165 190 2,900 -300 Descending Atlanta Center
09:16PM 33.5189 -86.7197 263° West 141 162 2,400 -840 Descending Atlanta Center
09:17PM 33.5369 -86.7503 305° West 103 119 1,300 -1,140 Descending Atlanta Center
09:19PM 33.5639 -86.7523 320° Northwest  Level Estimated